Mary Bennett — WDC4592 — position and weather

sailwx.info

Track history (hours):
 
Tides and Currents Weather Stations Pressure Air Temp Water Temp Dewpoint Dewpoint Depression Visibility Wind Speed Wind Dir Waves Ship Positions

Mary Bennett

Owner: Savannah Marine Services, Savannah, GA. More information available from US FCC via Universal Licensing System and Coast Guard Vessel Documentation Center.

Last reported at 2016-Jul-21 00:03 UTC. Time now 2016-Jul-25 10:04 UTC.
Position N 36°43' W 076°14'.

Length 21 m; draft 2.3 m.

Type: Tug. MMSI: 367027140.

Date/timePositionNaut miles runAvg speedWind from/ knotsBaromVisibWave heightAir tempDewpointWater temp
2016-Jul-21 00:03N 36°43' W 076°14'2 4.1
2016-Jul-20 23:33N 36°44' W 076°17'3 3.4
2016-Jul-20 22:33N 36°47' W 076°18'1 1.2
2016-Jul-20 21:33N 36°48' W 076°18'0 0.0
2016-Jul-20 20:34N 36°48' W 076°18'0 0.0
2016-Jul-20 19:33N 36°48' W 076°18'0 0.0
2016-Jul-20 18:34N 36°48' W 076°18'0 0.0
2016-Jul-20 17:34N 36°48' W 076°18'0 0.0
2016-Jul-20 16:34N 36°48' W 076°18'0 0.0
2016-Jul-20 15:33N 36°48' W 076°18'0 0.0
2016-Jul-20 14:33N 36°48' W 076°18'0 0.2
2016-Jul-20 13:34N 36°48' W 076°18'3 2.8
2016-Jul-20 12:33N 36°45' W 076°18'0 0.3
2016-Jul-20 11:25N 36°45' W 076°18'0 0.1
2016-Jul-20 10:33N 36°44' W 076°18'3 0.1
2016-Jul-18 21:16N 36°43' W 076°14'1 1.3
2016-Jul-18 20:33N 36°43' W 076°15'2 2.0
2016-Jul-18 19:29N 36°44' W 076°18'3 2.7
2016-Jul-18 18:33N 36°47' W 076°18'2 2.3
2016-Jul-18 17:34N 36°49' W 076°17'2 1.7
2016-Jul-18 16:34N 36°50' W 076°17'0 0.0
2016-Jul-18 15:34N 36°50' W 076°17'1 0.6
2016-Jul-18 14:33N 36°50' W 076°16'2 1.9
2016-Jul-18 13:34N 36°49' W 076°17'2 2.5
2016-Jul-18 12:34N 36°47' W 076°18'3 3.4
2016-Jul-18 11:33N 36°50' W 076°18'111 3.6
2016-Jul-17 04:26N 38°40' W 076°28'9 9.8
2016-Jul-17 03:33N 38°49' W 076°26'1010.3
2016-Jul-17 02:33N 38°59' W 076°23'1110.8
2016-Jul-17 01:33N 39°09' W 076°19'10 9.8
2016-Jul-17 00:33N 39°18' W 076°13'9 8.4
2016-Jul-16 23:33N 39°23' W 076°05'8 8.6
2016-Jul-16 22:34N 39°29' W 075°57'7 6.9
2016-Jul-16 21:33N 39°32' W 075°48'7 7.2
2016-Jul-16 20:33N 39°33' W 075°39'6 5.6
2016-Jul-16 19:34N 39°37' W 075°35'6 6.3
2016-Jul-16 18:34N 39°43' W 075°32'1 1.0
2016-Jul-16 17:33N 39°43' W 075°31'2 2.1
2016-Jul-16 16:33N 39°41' W 075°31'4 3.8
2016-Jul-16 15:33N 39°38' W 075°34'4 4.1
2016-Jul-16 14:34N 39°34' W 075°33'4 3.9
2016-Jul-16 13:34N 39°33' W 075°38'4 4.4
2016-Jul-16 12:33N 39°33' W 075°44'5 5.1
2016-Jul-16 11:33N 39°32' W 075°50'5 5.0
2016-Jul-16 10:33N 39°30' W 075°56'2 2.4
2016-Jul-16 09:34N 39°28' W 075°58'0 0.0
2016-Jul-16 02:34N 39°28' W 075°59'3 2.5
2016-Jul-16 01:33N 39°26' W 076°01'4 3.5
2016-Jul-16 00:33N 39°23' W 076°04'4 4.1
2016-Jul-15 23:33N 39°21' W 076°09'70 4.3
2016-Jul-15 07:21N 38°11' W 076°18'78 4.5
2016-Jul-14 14:07N 36°54' W 076°20'1 2.2
2016-Jul-14 13:33N 36°52' W 076°20'0 0.1
2016-Jul-14 12:28N 36°52' W 076°20'1 0.0
2016-Jul-12 20:28N 36°54' W 076°20'5 6.0
2016-Jul-12 19:33N 36°49' W 076°17'3 3.3
2016-Jul-12 18:33N 36°45' W 076°18'1 0.9
2016-Jul-12 17:32N 36°45' W 076°18'3 1.5
2016-Jul-12 15:30N 36°43' W 076°14'103 4.6
2016-Jul-11 17:10N 35°02' W 076°37'5 8.4
2016-Jul-11 16:33N 34°59' W 076°41'6 6.1
2016-Jul-11 15:34N 34°53' W 076°42'6 6.4
2016-Jul-11 14:34N 34°46' W 076°41'7 6.5
2016-Jul-11 13:33N 34°43' W 076°48'  
Track history (hours):
 
Tides and Currents Weather Stations Pressure Air Temp Water Temp Dewpoint Dewpoint Depression Visibility Wind Speed Wind Dir Waves Ship Positions

Mary Bennett

Owner: Savannah Marine Services, Savannah, GA. More information available from US FCC via Universal Licensing System and Coast Guard Vessel Documentation Center.

Last reported at 2016-Jul-21 00:03 UTC. Time now 2016-Jul-25 10:04 UTC.
Position N 36°43' W 076°14'.

Length 21 m; draft 2.3 m.

Type: Tug. MMSI: 367027140.

Date/timePositionNaut miles runAvg speedWind from/ knotsBaromVisibWave heightAir tempDewpointWater temp
2016-Jul-21 00:03N 36°43' W 076°14'2 4.1
2016-Jul-20 23:33N 36°44' W 076°17'3 3.4
2016-Jul-20 22:33N 36°47' W 076°18'1 1.2
2016-Jul-20 21:33N 36°48' W 076°18'0 0.0
2016-Jul-20 20:34N 36°48' W 076°18'0 0.0
2016-Jul-20 19:33N 36°48' W 076°18'0 0.0
2016-Jul-20 18:34N 36°48' W 076°18'0 0.0
2016-Jul-20 17:34N 36°48' W 076°18'0 0.0
2016-Jul-20 16:34N 36°48' W 076°18'0 0.0
2016-Jul-20 15:33N 36°48' W 076°18'0 0.0
2016-Jul-20 14:33N 36°48' W 076°18'0 0.2
2016-Jul-20 13:34N 36°48' W 076°18'3 2.8
2016-Jul-20 12:33N 36°45' W 076°18'0 0.3
2016-Jul-20 11:25N 36°45' W 076°18'0 0.1
2016-Jul-20 10:33N 36°44' W 076°18'3 0.1
2016-Jul-18 21:16N 36°43' W 076°14'1 1.3
2016-Jul-18 20:33N 36°43' W 076°15'2 2.0
2016-Jul-18 19:29N 36°44' W 076°18'3 2.7
2016-Jul-18 18:33N 36°47' W 076°18'2 2.3
2016-Jul-18 17:34N 36°49' W 076°17'2 1.7
2016-Jul-18 16:34N 36°50' W 076°17'0 0.0
2016-Jul-18 15:34N 36°50' W 076°17'1 0.6
2016-Jul-18 14:33N 36°50' W 076°16'2 1.9
2016-Jul-18 13:34N 36°49' W 076°17'2 2.5
2016-Jul-18 12:34N 36°47' W 076°18'3 3.4
2016-Jul-18 11:33N 36°50' W 076°18'111 3.6
2016-Jul-17 04:26N 38°40' W 076°28'9 9.8
2016-Jul-17 03:33N 38°49' W 076°26'1010.3
2016-Jul-17 02:33N 38°59' W 076°23'1110.8
2016-Jul-17 01:33N 39°09' W 076°19'10 9.8
2016-Jul-17 00:33N 39°18' W 076°13'9 8.4
2016-Jul-16 23:33N 39°23' W 076°05'8 8.6
2016-Jul-16 22:34N 39°29' W 075°57'7 6.9
2016-Jul-16 21:33N 39°32' W 075°48'7 7.2
2016-Jul-16 20:33N 39°33' W 075°39'6 5.6
2016-Jul-16 19:34N 39°37' W 075°35'6 6.3
2016-Jul-16 18:34N 39°43' W 075°32'1 1.0
2016-Jul-16 17:33N 39°43' W 075°31'2 2.1
2016-Jul-16 16:33N 39°41' W 075°31'4 3.8
2016-Jul-16 15:33N 39°38' W 075°34'4 4.1
2016-Jul-16 14:34N 39°34' W 075°33'4 3.9
2016-Jul-16 13:34N 39°33' W 075°38'4 4.4
2016-Jul-16 12:33N 39°33' W 075°44'5 5.1
2016-Jul-16 11:33N 39°32' W 075°50'5 5.0
2016-Jul-16 10:33N 39°30' W 075°56'2 2.4
2016-Jul-16 09:34N 39°28' W 075°58'0 0.0
2016-Jul-16 02:34N 39°28' W 075°59'3 2.5
2016-Jul-16 01:33N 39°26' W 076°01'4 3.5
2016-Jul-16 00:33N 39°23' W 076°04'4 4.1
2016-Jul-15 23:33N 39°21' W 076°09'70 4.3
2016-Jul-15 07:21N 38°11' W 076°18'78 4.5
2016-Jul-14 14:07N 36°54' W 076°20'1 2.2
2016-Jul-14 13:33N 36°52' W 076°20'0 0.1
2016-Jul-14 12:28N 36°52' W 076°20'1 0.0
2016-Jul-12 20:28N 36°54' W 076°20'5 6.0
2016-Jul-12 19:33N 36°49' W 076°17'3 3.3
2016-Jul-12 18:33N 36°45' W 076°18'1 0.9
2016-Jul-12 17:32N 36°45' W 076°18'3 1.5
2016-Jul-12 15:30N 36°43' W 076°14'103 4.6
2016-Jul-11 17:10N 35°02' W 076°37'5 8.4
2016-Jul-11 16:33N 34°59' W 076°41'6 6.1
2016-Jul-11 15:34N 34°53' W 076°42'6 6.4
2016-Jul-11 14:34N 34°46' W 076°41'7 6.5
2016-Jul-11 13:33N 34°43' W 076°48'  

Dump ship's entire track history